Time;durP1;ratioP1;P1;durP2;ratioP2;P2;SDS_P1;SDS_P2;PMS_P1;PMS_P2;Temp;Humidity;BMP_temperature;BMP_pressure;BME280_temperature;BME280_humidity;BME280_pressure;Samples;Min_cycle;Max_cycle;Signal;HPM_P1;HPM_P2
2022/11/19 00:02:17;;;;;;;9.40;4.00;;;;;21.06;95764.60;;;;108967;1260;41144;-53
2022/11/19 00:04:46;;;;;;;10.40;4.40;;;;;21.00;95758.00;;;;108971;1270;41166;-54
2022/11/19 00:07:15;;;;;;;10.50;4.10;;;;;21.00;95760.00;;;;108937;1272;41137;-55
2022/11/19 00:09:44;;;;;;;12.10;4.60;;;;;21.00;95757.60;;;;109035;1267;41238;-54
2022/11/19 00:15:00;;;;;;;8.90;3.50;;;;;21.00;95745.60;;;;108983;1272;41137;-54
2022/11/19 00:17:29;;;;;;;11.00;4.00;;;;;21.00;95755.40;;;;108960;1270;41181;-54
2022/11/19 00:19:58;;;;;;;9.40;4.10;;;;;21.00;95755.20;;;;108970;1264;41180;-54
2022/11/19 00:22:27;;;;;;;9.10;3.90;;;;;21.00;95760.00;;;;108960;1267;41142;-54
2022/11/19 00:24:56;;;;;;;12.40;4.10;;;;;21.00;95769.40;;;;108997;1272;41607;-54
2022/11/19 00:27:25;;;;;;;9.60;3.70;;;;;21.00;95773.60;;;;108998;1269;41725;-54
2022/11/19 00:29:54;;;;;;;9.00;3.60;;;;;21.00;95780.00;;;;108952;1272;41145;-54
2022/11/19 00:32:22;;;;;;;10.90;3.90;;;;;20.98;95785.40;;;;108941;1269;42222;-54
2022/11/19 00:34:51;;;;;;;9.00;3.80;;;;;21.00;95789.40;;;;108947;1271;41136;-54
2022/11/19 00:37:21;;;;;;;11.00;3.80;;;;;20.92;95782.80;;;;109017;1264;41405;-54
2022/11/19 00:39:50;;;;;;;11.40;4.10;;;;;20.92;95787.80;;;;108992;1267;41595;-54
2022/11/19 00:42:20;;;;;;;9.70;3.70;;;;;20.90;95787.80;;;;108967;1272;41651;-54
2022/11/19 00:44:49;;;;;;;8.40;3.50;;;;;20.90;95798.40;;;;109024;1269;41119;-54
2022/11/19 00:47:18;;;;;;;11.30;3.80;;;;;20.90;95804.60;;;;108989;1271;41683;-55
2022/11/19 00:49:47;;;;;;;10.00;3.60;;;;;20.90;95808.20;;;;108983;1270;41228;-54
2022/11/19 00:52:16;;;;;;;9.00;3.40;;;;;20.90;95809.20;;;;109013;1272;41152;-54
2022/11/19 00:54:45;;;;;;;10.10;3.50;;;;;20.90;95815.40;;;;108954;1272;41133;-54
2022/11/19 00:57:15;;;;;;;10.60;3.70;;;;;20.90;95814.40;;;;108976;1269;41154;-55
2022/11/19 00:59:44;;;;;;;10.30;3.30;;;;;20.90;95827.80;;;;109015;1269;41134;-53
2022/11/19 01:02:12;;;;;;;8.40;3.00;;;;;20.90;95836.60;;;;108943;1269;41307;-55
2022/11/19 01:04:42;;;;;;;7.80;3.20;;;;;20.90;95845.80;;;;109015;1269;41158;-54
2022/11/19 01:07:12;;;;;;;11.60;3.80;;;;;20.90;95853.60;;;;108971;1270;41191;-54
2022/11/19 01:09:41;;;;;;;8.20;3.20;;;;;20.88;95852.20;;;;108964;1266;41400;-54
2022/11/19 01:12:10;;;;;;;9.80;3.40;;;;;20.86;95857.00;;;;108932;1270;41721;-54
2022/11/19 01:14:39;;;;;;;9.40;3.20;;;;;20.82;95875.00;;;;108959;1267;41146;-54
2022/11/19 01:17:08;;;;;;;9.40;2.90;;;;;20.88;95888.40;;;;108944;1269;41137;-53
2022/11/19 01:19:37;;;;;;;9.60;3.50;;;;;20.80;95897.00;;;;108933;1269;41229;-54
2022/11/19 01:22:05;;;;;;;8.50;3.20;;;;;20.80;95906.00;;;;108880;1267;41609;-54
2022/11/19 01:24:34;;;;;;;7.40;2.90;;;;;20.80;95915.00;;;;108942;1269;41236;-54
2022/11/19 01:27:04;;;;;;;8.50;3.10;;;;;20.80;95919.00;;;;108969;1269;41943;-53
2022/11/19 01:29:33;;;;;;;8.80;3.20;;;;;20.80;95930.00;;;;108984;1270;41231;-54
2022/11/19 01:32:02;;;;;;;10.00;3.60;;;;;20.80;95935.00;;;;108979;1269;41157;-53
2022/11/19 01:34:31;;;;;;;8.20;3.20;;;;;20.80;95928.80;;;;108994;1267;42546;-54
2022/11/19 01:37:00;;;;;;;8.70;2.90;;;;;20.80;95942.60;;;;108997;1272;41484;-54
2022/11/19 01:39:29;;;;;;;9.20;3.40;;;;;20.80;95950.20;;;;108996;1257;41363;-53
2022/11/19 01:41:58;;;;;;;9.00;3.10;;;;;20.80;95951.80;;;;108986;1272;41146;-54
2022/11/19 01:45:06;;;;;;;8.10;3.30;;;;;20.80;95957.60;;;;108983;1265;41592;-55
2022/11/19 01:47:36;;;;;;;7.20;2.80;;;;;20.80;95969.60;;;;108386;1278;41155;-54
2022/11/19 01:50:06;;;;;;;8.30;2.60;;;;;20.80;95977.60;;;;108331;1278;41198;-54
2022/11/19 01:52:35;;;;;;;7.80;2.70;;;;;20.72;95979.60;;;;108768;1272;42199;-55
2022/11/19 01:55:06;;;;;;;8.50;3.20;;;;;20.70;95995.80;;;;109016;1272;41975;-54
2022/11/19 01:57:37;;;;;;;6.30;2.60;;;;;20.70;96005.20;;;;108995;1271;41169;-54
2022/11/19 02:00:07;;;;;;;8.20;2.90;;;;;20.70;96007.20;;;;108974;1271;41600;-54
2022/11/19 02:02:36;;;;;;;9.00;2.70;;;;;20.70;96011.60;;;;108973;1271;41590;-54
2022/11/19 02:05:07;;;;;;;7.80;2.70;;;;;20.70;96024.00;;;;108993;1272;41690;-54
2022/11/19 02:07:40;;;;;;;7.20;2.70;;;;;20.70;96041.40;;;;109013;1272;41152;-54
2022/11/19 02:10:10;;;;;;;9.10;3.40;;;;;20.70;96050.40;;;;108871;1270;41142;-53
2022/11/19 02:13:01;;;;;;;6.70;2.70;;;;;20.70;96057.40;;;;108948;1264;41172;-54
2022/11/19 02:15:34;;;;;;;6.90;2.50;;;;;20.70;96064.40;;;;108979;1269;41617;-53
2022/11/19 02:18:29;;;;;;;8.10;2.80;;;;;20.70;96072.60;;;;108954;1270;41149;-53
2022/11/19 02:21:27;;;;;;;8.30;3.10;;;;;20.70;96078.60;;;;108933;1272;42401;-53
2022/11/19 02:24:03;;;;;;;9.90;2.90;;;;;20.68;96098.20;;;;109006;1269;41238;-54
2022/11/19 02:26:53;;;;;;;7.20;2.70;;;;;20.68;96114.20;;;;108995;1261;41603;-54
2022/11/19 02:29:29;;;;;;;7.50;2.60;;;;;20.60;96121.80;;;;108978;1269;41149;-54
2022/11/19 02:32:05;;;;;;;7.80;2.70;;;;;20.60;96132.00;;;;108938;1269;41233;-54
2022/11/19 02:35:07;;;;;;;6.40;2.60;;;;;20.60;96144.60;;;;108956;1270;42229;-55
2022/11/19 02:37:43;;;;;;;8.20;2.70;;;;;20.60;96152.40;;;;109053;1269;41674;-53
2022/11/19 02:40:25;;;;;;;6.90;2.50;;;;;20.60;96161.80;;;;108928;1272;41239;-54
2022/11/19 02:43:04;;;;;;;7.90;2.80;;;;;20.60;96173.80;;;;108899;1267;41647;-53
2022/11/19 02:45:38;;;;;;;6.70;2.20;;;;;20.60;96189.40;;;;108933;1272;41644;-54
2022/11/19 02:48:17;;;;;;;6.90;2.70;;;;;20.60;96199.40;;;;108683;1271;41149;-53
2022/11/19 02:50:49;;;;;;;7.90;2.50;;;;;20.60;96210.60;;;;108922;1269;41701;-54
2022/11/19 02:53:20;;;;;;;4.80;2.00;;;;;20.60;96223.60;;;;108946;1269;41235;-54
2022/11/19 03:04:31;;;;;;;4.30;2.10;;;;;20.50;96264.40;;;;108955;1269;41134;-54
2022/11/19 03:07:07;;;;;;;4.50;2.00;;;;;20.50;96273.20;;;;109028;1268;41252;-54
2022/11/19 03:09:47;;;;;;;5.70;2.10;;;;;20.50;96280.00;;;;109003;1267;41581;-54
2022/11/19 03:16:40;;;;;;;4.90;2.00;;;;;20.50;96287.20;;;;108989;1269;41986;-53
2022/11/19 03:18:53;;;;;;;6.20;2.30;;;;;20.50;96303.80;;;;108984;1269;41160;-54
2022/11/19 03:21:34;;;;;;;6.50;2.10;;;;;20.50;96311.20;;;;108983;1269;41591;-54
2022/11/19 03:24:08;;;;;;;6.90;2.10;;;;;20.48;96319.40;;;;108972;1269;41136;-53
2022/11/19 03:27:01;;;;;;;7.50;2.40;;;;;20.46;96336.40;;;;109009;1269;41617;-54
2022/11/19 03:29:34;;;;;;;5.30;1.90;;;;;20.40;96350.80;;;;108688;1272;41237;-54
2022/11/19 03:32:10;;;;;;;4.80;1.90;;;;;20.40;96359.80;;;;108924;1261;41169;-54
2022/11/19 03:34:42;;;;;;;5.60;2.00;;;;;20.40;96364.00;;;;108940;1269;41142;-54
2022/11/19 03:37:12;;;;;;;6.10;2.20;;;;;20.40;96372.60;;;;108968;1272;41142;-54
2022/11/19 03:39:42;;;;;;;4.50;1.80;;;;;20.40;96380.80;;;;108932;1272;41174;-54
2022/11/19 03:42:15;;;;;;;5.30;2.20;;;;;20.40;96390.80;;;;108989;1267;41157;-54
2022/11/19 03:44:50;;;;;;;6.10;2.20;;;;;20.40;96398.00;;;;108877;1271;41146;-54
2022/11/19 03:47:26;;;;;;;6.10;2.20;;;;;20.40;96403.60;;;;108957;1267;41475;-54
2022/11/19 03:50:29;;;;;;;5.30;1.90;;;;;20.40;96403.40;;;;109073;1270;41989;-54
2022/11/19 03:52:58;;;;;;;4.30;1.80;;;;;20.40;96406.00;;;;108774;1272;42324;-54
2022/11/19 03:55:36;;;;;;;4.50;2.00;;;;;20.40;96409.40;;;;108901;1272;41568;-54
2022/11/19 03:58:07;;;;;;;4.40;1.80;;;;;20.38;96416.20;;;;108699;1272;41152;-54
2022/11/19 04:00:36;;;;;;;;;;;;;20.36;96417.80;;;;108960;1272;42506;-54
2022/11/19 04:03:05;;;;;;;4.60;1.80;;;;;20.30;96412.80;;;;108981;1267;41227;-54
2022/11/19 04:05:35;;;;;;;4.50;1.80;;;;;20.30;96409.40;;;;108981;1269;41157;-54
2022/11/19 04:08:06;;;;;;;4.10;1.80;;;;;20.30;96414.80;;;;108950;1271;41180;-54
2022/11/19 04:10:36;;;;;;;5.00;1.80;;;;;20.30;96421.80;;;;108982;1272;41179;-53
2022/11/19 04:13:05;;;;;;;6.00;1.90;;;;;20.30;96429.20;;;;108973;1267;41146;-54
2022/11/19 04:15:34;;;;;;;4.70;1.80;;;;;20.30;96435.00;;;;108964;1272;41263;-53
2022/11/19 04:18:04;;;;;;;5.70;2.00;;;;;20.30;96445.20;;;;108909;1269;41242;-53
2022/11/19 04:20:34;;;;;;;;;;;;;20.30;96450.00;;;;108937;1267;41727;-54
2022/11/19 04:23:04;;;;;;;5.00;1.80;;;;;20.20;96458.20;;;;108925;1269;41155;-53
2022/11/19 04:25:33;;;;;;;5.10;1.90;;;;;20.20;96463.20;;;;108950;1270;42700;-53
2022/11/19 04:28:03;;;;;;;3.40;1.70;;;;;20.20;96469.00;;;;108948;1272;41135;-53
2022/11/19 04:30:33;;;;;;;4.00;1.70;;;;;20.20;96479.40;;;;108960;1270;41152;-54
2022/11/19 04:33:03;;;;;;;4.70;1.80;;;;;20.20;96488.40;;;;108977;1269;41913;-53
2022/11/19 04:35:33;;;;;;;2.90;1.50;;;;;20.20;96499.80;;;;108957;1267;41503;-54
2022/11/19 04:38:02;;;;;;;4.40;2.00;;;;;20.20;96510.80;;;;108959;1272;41554;-54
2022/11/19 04:40:32;;;;;;;3.40;1.60;;;;;20.20;96518.20;;;;108967;1269;41142;-53
2022/11/19 04:43:01;;;;;;;4.00;1.80;;;;;20.20;96522.60;;;;108959;1269;41612;-53
2022/11/19 04:45:30;;;;;;;3.70;1.60;;;;;20.20;96532.40;;;;108973;1269;41163;-54
2022/11/19 04:48:00;;;;;;;3.70;1.80;;;;;20.20;96534.20;;;;108981;1269;41144;-54
2022/11/19 04:50:30;;;;;;;3.30;1.50;;;;;20.20;96545.60;;;;108930;1269;41593;-54
2022/11/19 04:53:00;;;;;;;3.00;1.50;;;;;20.16;96543.40;;;;108983;1270;41450;-54
2022/11/19 04:55:30;;;;;;;4.50;1.80;;;;;20.12;96547.40;;;;109021;1263;41281;-54
2022/11/19 04:57:59;;;;;;;3.90;1.70;;;;;20.12;96546.00;;;;109006;1267;41234;-54
2022/11/19 05:00:28;;;;;;;4.00;1.50;;;;;20.10;96546.60;;;;108995;1269;41223;-53
2022/11/19 05:02:58;;;;;;;4.60;1.50;;;;;20.10;96551.40;;;;108987;1269;41618;-54
2022/11/19 05:05:27;;;;;;;3.80;1.60;;;;;20.10;96552.80;;;;108943;1269;41149;-52
2022/11/19 05:07:56;;;;;;;3.50;1.60;;;;;20.10;96561.20;;;;108957;1269;41160;-53
2022/11/19 05:10:25;;;;;;;3.40;1.60;;;;;20.10;96563.00;;;;108899;1269;41231;-54
2022/11/19 05:12:54;;;;;;;3.70;1.60;;;;;20.10;96570.60;;;;108918;1265;41229;-53
2022/11/19 05:15:24;;;;;;;4.00;1.60;;;;;20.10;96577.20;;;;108966;1269;41789;-53
2022/11/19 05:17:53;;;;;;;3.30;1.50;;;;;20.10;96579.20;;;;109044;1267;42436;-53
2022/11/19 05:20:22;;;;;;;3.70;1.70;;;;;20.10;96584.00;;;;108946;1267;41136;-53
2022/11/19 05:22:52;;;;;;;4.60;1.60;;;;;20.10;96595.60;;;;109007;1269;41184;-54
2022/11/19 05:25:20;;;;;;;3.20;1.60;;;;;20.08;96601.00;;;;108975;1269;41626;-54
2022/11/19 05:27:50;;;;;;;2.50;1.40;;;;;20.08;96598.00;;;;108961;1269;41417;-53
2022/11/19 05:30:19;;;;;;;3.20;1.40;;;;;20.02;96601.60;;;;108993;1261;41171;-54
2022/11/19 05:32:48;;;;;;;2.70;1.40;;;;;20.00;96607.20;;;;108952;1267;41879;-54
2022/11/19 05:35:18;;;;;;;3.60;1.50;;;;;20.00;96614.20;;;;109051;1267;41226;-54
2022/11/19 05:37:50;;;;;;;3.40;1.50;;;;;20.00;96634.80;;;;108901;1269;41180;-54
2022/11/19 05:40:18;;;;;;;3.20;1.40;;;;;20.00;96640.40;;;;108900;1269;41312;-54
2022/11/19 05:42:51;;;;;;;2.70;1.40;;;;;20.00;96646.40;;;;108834;1271;41219;-54
2022/11/19 05:45:20;;;;;;;4.10;1.50;;;;;20.00;96657.20;;;;108915;1268;41168;-54
2022/11/19 05:47:53;;;;;;;3.90;1.50;;;;;20.00;96658.60;;;;108896;1269;41148;-54
2022/11/19 05:50:22;;;;;;;3.40;1.40;;;;;20.00;96673.20;;;;108893;1269;41601;-53
2022/11/19 05:52:51;;;;;;;3.30;1.40;;;;;20.00;96683.80;;;;108976;1269;41239;-53
2022/11/19 05:55:20;;;;;;;2.90;1.30;;;;;20.00;96698.00;;;;108998;1267;41777;-54
2022/11/19 05:57:49;;;;;;;2.30;1.30;;;;;20.00;96705.80;;;;108959;1269;41149;-54
2022/11/19 06:00:19;;;;;;;3.00;1.30;;;;;20.00;96710.00;;;;109040;1269;41606;-53
2022/11/19 06:02:48;;;;;;;3.80;1.50;;;;;20.00;96722.20;;;;108936;1271;41408;-54
2022/11/19 06:05:17;;;;;;;3.00;1.40;;;;;20.00;96726.40;;;;109015;1269;41613;-54
2022/11/19 06:07:45;;;;;;;3.00;1.40;;;;;20.00;96728.00;;;;109023;1269;41156;-53
2022/11/19 06:10:14;;;;;;;3.60;1.50;;;;;20.00;96741.40;;;;109013;1269;42253;-53
2022/11/19 06:12:43;;;;;;;2.80;1.40;;;;;20.00;96757.60;;;;109006;1271;41289;-54
2022/11/19 06:15:13;;;;;;;2.40;1.30;;;;;20.00;96763.40;;;;108978;1260;41175;-54
2022/11/19 06:17:42;;;;;;;2.40;1.20;;;;;20.00;96771.60;;;;108980;1271;41139;-53
2022/11/19 06:20:10;;;;;;;1.30;1.20;;;;;20.00;96776.60;;;;109000;1269;41242;-54
2022/11/19 06:22:39;;;;;;;3.00;1.40;;;;;20.00;96789.00;;;;108998;1269;41590;-54
2022/11/19 06:25:08;;;;;;;3.70;1.20;;;;;20.00;96791.00;;;;109008;1267;41157;-54
2022/11/19 06:27:37;;;;;;;1.60;1.20;;;;;20.08;96802.00;;;;108990;1269;42193;-54
2022/11/19 06:30:07;;;;;;;2.00;1.20;;;;;20.10;96806.80;;;;108898;1267;41370;-53
2022/11/19 06:32:35;;;;;;;3.00;1.40;;;;;20.10;96815.00;;;;108960;1269;41241;-53
2022/11/19 06:35:04;;;;;;;2.10;1.30;;;;;20.10;96814.00;;;;108965;1267;41232;-53
2022/11/19 06:37:33;;;;;;;3.30;1.20;;;;;20.10;96827.00;;;;109002;1269;41667;-53
2022/11/19 06:40:03;;;;;;;2.40;1.30;;;;;20.10;96828.20;;;;108997;1269;41239;-53
2022/11/19 06:42:37;;;;;;;2.50;1.20;;;;;20.10;96832.00;;;;109036;1269;41143;-54
2022/11/19 06:45:12;;;;;;;1.20;1.10;;;;;20.10;96843.60;;;;109020;1269;42198;-54
2022/11/19 06:47:41;;;;;;;2.40;1.40;;;;;20.10;96847.00;;;;108999;1269;41152;-54
2022/11/19 06:50:10;;;;;;;2.40;1.20;;;;;20.10;96850.40;;;;108979;1269;42023;-53
2022/11/19 06:52:39;;;;;;;3.60;1.40;;;;;20.10;96862.20;;;;109068;1267;41690;-54
2022/11/19 06:55:08;;;;;;;4.40;1.10;;;;;20.10;96867.60;;;;108897;1271;41923;-54
2022/11/19 06:57:36;;;;;;;1.80;1.20;;;;;20.10;96869.60;;;;108959;1269;41284;-53
2022/11/19 07:00:06;;;;;;;3.20;1.20;;;;;20.10;96874.60;;;;109011;1267;40829;-54
2022/11/19 07:02:35;;;;;;;1.60;1.30;;;;;20.10;96874.60;;;;109045;1260;41940;-54
2022/11/19 07:05:04;;;;;;;2.40;1.10;;;;;20.10;96880.60;;;;108964;1269;41641;-54
2022/11/19 07:07:33;;;;;;;3.10;1.20;;;;;20.10;96880.40;;;;108999;1269;41578;-54
2022/11/19 07:10:03;;;;;;;3.70;1.20;;;;;20.10;96883.60;;;;109006;1267;41275;-54
2022/11/19 07:12:31;;;;;;;2.50;1.20;;;;;20.10;96887.20;;;;108957;1269;41176;-54
2022/11/19 07:15:01;;;;;;;3.30;1.20;;;;;20.10;96896.60;;;;108952;1269;41604;-54
2022/11/19 07:17:32;;;;;;;2.60;1.30;;;;;20.10;96909.20;;;;109001;1269;41142;-53
2022/11/19 07:20:00;;;;;;;2.10;1.30;;;;;20.10;96916.40;;;;108972;1267;41696;-49
2022/11/19 07:22:29;;;;;;;3.20;1.30;;;;;20.10;96924.20;;;;108677;1271;41313;-49
2022/11/19 07:24:58;;;;;;;1.50;1.20;;;;;20.10;96925.40;;;;108949;1269;41621;-51
2022/11/19 07:27:27;;;;;;;2.20;1.20;;;;;20.16;96924.80;;;;109008;1260;41135;-55
2022/11/19 07:29:55;;;;;;;2.90;1.30;;;;;20.20;96924.60;;;;108956;1269;41140;-54
2022/11/19 07:32:25;;;;;;;2.40;1.30;;;;;20.20;96924.40;;;;109006;1269;41250;-54
2022/11/19 07:34:53;;;;;;;4.10;1.40;;;;;20.20;96927.60;;;;108980;1270;41335;-54
2022/11/19 07:37:22;;;;;;;2.00;1.20;;;;;20.20;96925.80;;;;108984;1269;41349;-54
2022/11/19 07:39:51;;;;;;;2.70;1.20;;;;;20.20;96927.60;;;;108946;1269;41929;-55
2022/11/19 07:45:09;;;;;;;1.50;1.10;;;;;20.20;96935.40;;;;108940;1269;41246;-54
2022/11/19 07:47:37;;;;;;;2.60;1.30;;;;;20.24;96937.00;;;;108917;1269;41895;-56
2022/11/19 07:50:07;;;;;;;1.20;1.10;;;;;20.28;96929.20;;;;108693;1271;41237;-54
2022/11/19 07:52:37;;;;;;;2.00;1.20;;;;;20.30;96934.00;;;;108778;1271;41151;-56
2022/11/19 07:55:08;;;;;;;1.50;1.20;;;;;20.30;96941.80;;;;108827;1267;41144;-55
2022/11/19 07:57:37;;;;;;;2.00;1.10;;;;;20.30;96950.20;;;;108669;1267;41785;-54
2022/11/19 08:00:07;;;;;;;1.60;1.10;;;;;20.30;96959.20;;;;108860;1264;41534;-55
2022/11/19 08:02:43;;;;;;;2.30;1.10;;;;;20.30;96967.60;;;;108716;1267;41600;-55
2022/11/19 08:05:13;;;;;;;1.00;1.00;;;;;20.30;96976.60;;;;108908;1271;41231;-53
2022/11/19 08:07:43;;;;;;;2.00;1.10;;;;;20.30;96978.00;;;;108777;1270;42394;-52
2022/11/19 08:10:12;;;;;;;1.30;1.00;;;;;20.30;96983.20;;;;108913;1266;41140;-53
2022/11/19 08:13:01;;;;;;;2.20;1.30;;;;;20.34;96987.40;;;;108961;1267;41132;-55
2022/11/19 08:15:31;;;;;;;2.00;1.20;;;;;20.40;96985.80;;;;108883;1266;42130;-55
2022/11/19 08:18:11;;;;;;;2.20;1.20;;;;;20.40;96985.20;;;;108944;1271;41232;-54
2022/11/19 08:20:43;;;;;;;;;;;;;20.42;96988.80;;;;108984;1263;41234;-56
2022/11/19 08:23:12;;;;;;;1.70;1.00;;;;;20.50;96989.80;;;;108997;1270;41496;-55
2022/11/19 08:25:43;;;;;;;1.80;1.20;;;;;20.50;96985.60;;;;108700;1270;41495;-53
2022/11/19 08:28:11;;;;;;;2.00;1.20;;;;;20.56;96980.40;;;;108277;1270;424102;-55
2022/11/19 08:30:40;;;;;;;1.20;1.10;;;;;20.60;96978.00;;;;108736;1271;41608;-55
2022/11/19 08:33:09;;;;;;;1.40;1.10;;;;;20.80;96977.20;;;;108947;1270;41236;-54
2022/11/19 08:35:38;;;;;;;2.30;1.20;;;;;21.00;96977.00;;;;108635;1267;41178;-54
2022/11/19 08:38:10;;;;;;;1.60;1.20;;;;;21.22;96985.60;;;;108842;1271;41571;-53
2022/11/19 08:40:50;;;;;;;2.20;1.30;;;;;21.50;97002.60;;;;109053;1269;42849;-53
2022/11/19 08:43:19;;;;;;;3.60;1.50;;;;;21.80;97001.60;;;;108967;1261;41141;-54
2022/11/19 08:45:53;;;;;;;1.30;1.10;;;;;22.10;97000.60;;;;108918;1270;41145;-54
2022/11/19 08:48:22;;;;;;;1.20;1.10;;;;;22.40;96998.20;;;;108926;1269;41580;-54
2022/11/19 08:50:50;;;;;;;2.80;1.10;;;;;22.52;96997.60;;;;108984;1270;41689;-54
2022/11/19 08:53:19;;;;;;;2.80;1.20;;;;;22.60;96998.20;;;;108949;1269;41232;-54
2022/11/19 08:55:50;;;;;;;2.10;1.10;;;;;22.60;97006.40;;;;108991;1269;42343;-54
2022/11/19 08:58:19;;;;;;;1.30;1.20;;;;;22.54;97009.40;;;;108999;1269;42466;-54
2022/11/19 09:00:48;;;;;;;1.10;1.00;;;;;22.50;97015.00;;;;108979;1272;41275;-53
2022/11/19 09:03:17;;;;;;;1.60;1.20;;;;;22.40;97016.00;;;;108751;1270;42829;-53
2022/11/19 09:05:46;;;;;;;1.20;1.10;;;;;22.40;97018.20;;;;108928;1263;41693;-54
2022/11/19 09:08:15;;;;;;;1.30;1.10;;;;;22.30;97027.60;;;;108949;1269;41592;-54
2022/11/19 09:10:44;;;;;;;1.80;1.20;;;;;22.30;97024.80;;;;108984;1271;41684;-54
2022/11/19 09:13:12;;;;;;;3.80;1.30;;;;;22.20;97029.60;;;;108986;1271;41151;-54
2022/11/19 09:15:41;;;;;;;2.10;1.10;;;;;22.20;97033.80;;;;108970;1270;41162;-54
2022/11/19 09:18:09;;;;;;;2.10;1.20;;;;;22.20;97035.20;;;;109047;1269;41137;-55
2022/11/19 09:20:39;;;;;;;1.20;1.10;;;;;22.20;97030.20;;;;109012;1269;41464;-54
2022/11/19 09:23:08;;;;;;;1.90;1.00;;;;;22.20;97024.00;;;;108889;1257;41887;-54
2022/11/19 09:25:36;;;;;;;2.20;1.20;;;;;22.20;97023.00;;;;109006;1257;41435;-53
2022/11/19 09:28:05;;;;;;;2.80;1.20;;;;;22.20;97036.40;;;;108667;1272;41700;-53
2022/11/19 09:30:33;;;;;;;1.40;1.20;;;;;22.18;97045.00;;;;108886;1272;41608;-54
2022/11/19 09:33:02;;;;;;;1.60;1.10;;;;;22.10;97047.00;;;;108912;1263;41150;-54
2022/11/19 09:35:31;;;;;;;1.20;1.10;;;;;22.10;97040.20;;;;108806;1257;41132;-53
2022/11/19 09:37:59;;;;;;;1.90;1.20;;;;;22.02;97033.20;;;;108945;1257;41881;-54
2022/11/19 09:40:28;;;;;;;1.90;1.20;;;;;22.10;97030.40;;;;108946;1271;41123;-54
2022/11/19 09:43:00;;;;;;;1.60;1.10;;;;;22.20;97039.60;;;;109040;1267;41700;-53
2022/11/19 09:45:39;;;;;;;2.50;1.20;;;;;22.30;97043.80;;;;108928;1263;41667;-53
2022/11/19 09:48:14;;;;;;;5.20;1.10;;;;;22.40;97047.60;;;;108993;1269;41155;-53
2022/11/19 09:50:59;;;;;;;1.90;1.20;;;;;22.40;97049.20;;;;108927;1269;42209;-55
2022/11/19 09:53:32;;;;;;;2.60;1.30;;;;;22.40;97051.80;;;;108987;1269;41166;-54
2022/11/19 09:56:01;;;;;;;2.50;1.30;;;;;22.40;97046.20;;;;109026;1269;41131;-51
2022/11/19 09:58:36;;;;;;;1.80;1.10;;;;;22.40;97045.00;;;;109043;1267;41761;-53
2022/11/19 10:01:05;;;;;;;1.70;1.10;;;;;22.40;97038.20;;;;109069;1267;41645;-56
2022/11/19 10:03:39;;;;;;;1.60;1.10;;;;;22.40;97034.00;;;;108692;1271;41143;-52
2022/11/19 10:06:14;;;;;;;1.70;1.10;;;;;22.40;97033.60;;;;108951;1269;42085;-48
2022/11/19 10:09:16;;;;;;;1.30;1.00;;;;;22.42;97034.80;;;;108971;1267;41158;-52
2022/11/19 10:12:06;;;;;;;2.10;1.30;;;;;22.40;97040.20;;;;109072;1269;41237;-52
2022/11/19 10:14:56;;;;;;;3.20;1.00;;;;;22.40;97043.20;;;;108892;1265;41603;-56
2022/11/19 10:17:49;;;;;;;3.40;1.30;;;;;22.40;97051.80;;;;109021;1271;41143;-54
2022/11/19 10:20:36;;;;;;;1.90;1.30;;;;;22.30;97051.20;;;;109063;1268;41751;-51
2022/11/19 10:23:14;;;;;;;3.50;1.50;;;;;22.30;97048.80;;;;109027;1269;41517;-52
2022/11/19 10:26:40;;;;;;;3.10;1.40;;;;;22.38;97055.00;;;;105537;1305;542359;-57
2022/11/19 10:29:14;;;;;;;6.70;1.80;;;;;22.44;97060.40;;;;108227;1282;41158;-59
2022/11/19 10:31:45;;;;;;;6.20;1.90;;;;;22.68;97061.20;;;;108163;1279;41892;-59
2022/11/19 10:34:25;;;;;;;3.90;1.50;;;;;22.90;97060.40;;;;108071;1283;41249;-58
2022/11/19 10:37:14;;;;;;;4.50;1.40;;;;;23.10;97058.00;;;;108154;1283;41151;-58
2022/11/19 10:39:43;;;;;;;4.90;1.60;;;;;23.12;97066.00;;;;106477;1279;2296175;-58
2022/11/19 10:42:13;;;;;;;4.90;1.70;;;;;23.20;97075.40;;;;108216;1281;41240;-58
2022/11/19 10:44:48;;;;;;;3.40;1.50;;;;;23.20;97076.60;;;;108498;1278;42033;-58
2022/11/19 10:47:25;;;;;;;6.00;2.00;;;;;23.20;97071.60;;;;108470;1277;41175;-58
2022/11/19 10:49:55;;;;;;;13.40;3.10;;;;;23.20;97074.60;;;;108571;1277;41697;-58
2022/11/19 10:52:45;;;;;;;11.20;3.20;;;;;23.20;97077.00;;;;108467;1270;41156;-58
2022/11/19 10:55:33;;;;;;;9.90;3.40;;;;;23.30;97078.20;;;;108554;1278;41609;-57
2022/11/19 10:58:25;;;;;;;10.70;3.60;;;;;23.40;97075.80;;;;108484;1264;41133;-58
2022/11/19 11:00:56;;;;;;;13.80;3.80;;;;;23.50;97072.40;;;;108522;1278;41158;-57
2022/11/19 11:03:28;;;;;;;14.10;3.70;;;;;23.58;97071.20;;;;108423;1273;42072;-60
2022/11/19 11:06:05;;;;;;;12.20;3.50;;;;;23.66;97077.00;;;;108294;1274;41249;-57
2022/11/19 11:08:50;;;;;;;13.70;3.70;;;;;23.70;97078.80;;;;108331;1278;41210;-59
2022/11/19 11:17:30;;;;;;;12.40;3.60;;;;;23.90;97077.80;;;;108343;1278;42412;-57
2022/11/19 11:20:00;;;;;;;13.60;3.50;;;;;23.92;97078.80;;;;108542;1278;42611;-58
2022/11/19 11:22:29;;;;;;;14.30;4.00;;;;;24.00;97082.20;;;;108434;1277;41604;-64
2022/11/19 11:24:59;;;;;;;19.90;3.60;;;;;24.00;97088.60;;;;108416;1278;41149;-60
2022/11/19 11:27:34;;;;;;;12.80;3.80;;;;;24.00;97093.20;;;;108349;1278;42004;-57
2022/11/19 11:30:10;;;;;;;11.70;3.30;;;;;24.04;97088.80;;;;108623;1270;41176;-59
2022/11/19 11:32:39;;;;;;;12.50;3.60;;;;;24.10;97084.40;;;;108394;1277;41559;-60
2022/11/19 11:35:32;;;;;;;15.30;3.60;;;;;24.10;97083.00;;;;108479;1278;41231;-59
2022/11/19 11:38:02;;;;;;;10.40;3.20;;;;;24.10;97077.40;;;;108340;1278;41834;-57
2022/11/19 11:40:30;;;;;;;11.30;2.90;;;;;24.10;97083.20;;;;108380;1277;42402;-58
2022/11/19 11:43:01;;;;;;;10.60;3.00;;;;;24.10;97084.60;;;;108360;1270;41257;-57
2022/11/19 11:45:34;;;;;;;13.00;3.00;;;;;24.00;97080.00;;;;108354;1278;41156;-57
2022/11/19 11:48:06;;;;;;;13.20;3.20;;;;;23.90;97071.60;;;;108335;1278;41180;-55
2022/11/19 11:50:36;;;;;;;10.90;3.20;;;;;23.80;97072.80;;;;108324;1278;42525;-55
2022/11/19 11:53:08;;;;;;;8.90;2.90;;;;;23.70;97072.60;;;;108405;1277;41160;-56
2022/11/19 11:55:40;;;;;;;12.10;3.30;;;;;23.60;97072.20;;;;108441;1278;41153;-56
2022/11/19 11:58:25;;;;;;;10.60;3.10;;;;;23.50;97074.80;;;;108461;1276;41386;-56
2022/11/19 12:01:17;;;;;;;10.80;2.70;;;;;23.40;97078.60;;;;108417;1277;41244;-56
2022/11/19 12:03:56;;;;;;;10.70;3.00;;;;;23.24;97080.80;;;;108483;1273;41162;-56
2022/11/19 12:06:30;;;;;;;13.20;3.30;;;;;23.18;97081.40;;;;108302;1278;41149;-56
2022/11/19 12:09:18;;;;;;;11.60;3.00;;;;;23.10;97088.80;;;;108423;1278;41152;-56
2022/11/19 12:12:17;;;;;;;10.60;2.90;;;;;23.00;97091.60;;;;108382;1271;41426;-56
2022/11/19 12:15:02;;;;;;;9.10;3.00;;;;;22.90;97090.00;;;;108434;1278;41221;-56
2022/11/19 12:17:49;;;;;;;7.70;2.50;;;;;22.90;97092.20;;;;108416;1273;41625;-57
2022/11/19 12:20:33;;;;;;;9.60;2.80;;;;;22.80;97092.60;;;;108403;1278;41147;-56
2022/11/19 12:23:18;;;;;;;10.20;2.70;;;;;22.80;97095.40;;;;108443;1276;41674;-57
2022/11/19 12:25:47;;;;;;;10.30;3.20;;;;;22.70;97104.80;;;;108505;1277;42356;-56
2022/11/19 12:28:44;;;;;;;9.60;2.70;;;;;22.70;97106.80;;;;108448;1277;41984;-57
2022/11/19 12:31:31;;;;;;;9.10;2.70;;;;;22.60;97106.20;;;;108457;1273;41443;-57
2022/11/19 12:34:00;;;;;;;8.50;3.10;;;;;22.60;97113.60;;;;108431;1278;41907;-57
2022/11/19 12:36:40;;;;;;;9.70;2.60;;;;;22.56;97110.40;;;;108495;1275;41529;-57
2022/11/19 12:39:18;;;;;;;8.30;2.60;;;;;22.50;97109.20;;;;108415;1278;41890;-56
2022/11/19 12:42:05;;;;;;;9.80;2.80;;;;;22.50;97112.60;;;;108388;1276;41231;-57
2022/11/19 12:44:34;;;;;;;8.90;2.60;;;;;22.50;97121.00;;;;108447;1270;41163;-57
2022/11/19 12:47:21;;;;;;;11.20;2.80;;;;;22.40;97118.80;;;;108482;1278;41671;-57
2022/11/19 12:50:14;;;;;;;10.80;2.80;;;;;22.40;97123.80;;;;108395;1270;41252;-57
2022/11/19 12:53:07;;;;;;;10.50;2.50;;;;;22.40;97123.40;;;;108400;1277;41240;-57
2022/11/19 12:55:35;;;;;;;9.20;2.60;;;;;22.34;97130.20;;;;108407;1278;41160;-57
2022/11/19 12:58:26;;;;;;;9.80;2.80;;;;;22.30;97133.20;;;;108384;1278;41147;-56
2022/11/19 13:01:01;;;;;;;8.00;2.40;;;;;22.30;97146.40;;;;108453;1276;41256;-57
2022/11/19 13:03:58;;;;;;;11.60;2.70;;;;;22.30;97150.60;;;;108423;1278;41433;-57